createdAt,value
2024-03-14T00:02:01.623Z,13.05
2024-03-14T00:04:28.510Z,12.79
2024-03-14T00:06:55.994Z,13.06
2024-03-14T00:09:24.167Z,13.28
2024-03-14T00:11:51.639Z,13.17
2024-03-14T00:14:18.362Z,13.04
2024-03-14T00:16:45.041Z,13.08
2024-03-14T00:19:12.414Z,12.88
2024-03-14T00:21:40.469Z,13.10
2024-03-14T00:24:09.388Z,12.27
2024-03-14T00:26:36.115Z,12.33
2024-03-14T00:29:02.819Z,12.06
2024-03-14T00:31:30.842Z,12.16
2024-03-14T00:33:57.750Z,12.07
2024-03-14T00:36:24.820Z,11.89
2024-03-14T00:38:52.058Z,12.04
2024-03-14T00:41:18.765Z,11.69
2024-03-14T00:43:45.398Z,11.79
2024-03-14T00:46:12.328Z,11.74
2024-03-14T00:48:39.235Z,11.93
2024-03-14T00:51:10.945Z,11.66
2024-03-14T00:53:37.721Z,11.96
2024-03-14T00:56:04.643Z,11.77
2024-03-14T00:58:31.850Z,11.93
2024-03-14T01:00:58.526Z,11.84
2024-03-14T01:03:25.816Z,11.90
2024-03-14T01:05:52.529Z,11.18
2024-03-14T01:08:20.308Z,11.15
2024-03-14T01:10:47.087Z,11.32
2024-03-14T01:13:13.859Z,10.92
2024-03-14T01:15:40.498Z,11.24
2024-03-14T01:18:07.771Z,10.92
2024-03-14T01:20:34.876Z,10.96
2024-03-14T01:23:01.540Z,10.55
2024-03-14T01:25:28.257Z,10.74
2024-03-14T01:27:54.991Z,10.96
2024-03-14T01:30:22.437Z,10.53
2024-03-14T01:32:51.015Z,10.19
2024-03-14T01:35:18.092Z,10.37
2024-03-14T01:37:44.807Z,10.53
2024-03-14T01:40:14.524Z,10.70
2024-03-14T01:42:45.542Z,9.88
2024-03-14T01:45:16.664Z,10.15
2024-03-14T01:47:45.211Z,10.15
2024-03-14T01:50:12.464Z,9.91
2024-03-14T01:52:39.268Z,9.86
2024-03-14T01:55:06.215Z,10.14
2024-03-14T01:57:33.736Z,9.90
2024-03-14T02:00:01.372Z,9.88
2024-03-14T02:02:28.750Z,10.06
2024-03-14T02:05:14.480Z,9.95
2024-03-14T02:07:41.748Z,9.93
2024-03-14T02:10:13.656Z,9.52
2024-03-14T02:12:40.878Z,9.78
2024-03-14T02:15:09.347Z,9.64
2024-03-14T02:17:37.070Z,9.48
2024-03-14T02:20:05.809Z,9.43
2024-03-14T02:22:32.532Z,9.75
2024-03-14T02:24:59.167Z,9.79
2024-03-14T02:27:26.403Z,9.38
2024-03-14T02:29:53.137Z,9.66
2024-03-14T02:32:19.784Z,9.65
2024-03-14T02:34:46.455Z,9.57
2024-03-14T02:37:13.912Z,9.87
2024-03-14T02:39:40.755Z,9.89
2024-03-14T02:42:07.564Z,10.03
2024-03-14T02:44:34.346Z,10.06
2024-03-14T02:47:01.040Z,10.08
2024-03-14T02:49:28.540Z,10.00
2024-03-14T02:51:55.744Z,10.17
2024-03-14T02:54:22.415Z,10.44
2024-03-14T02:56:51.416Z,10.41
2024-03-14T02:59:18.565Z,10.59
2024-03-14T03:01:45.343Z,10.83
2024-03-14T03:04:12.426Z,11.35
2024-03-14T03:06:55.760Z,11.25
2024-03-14T03:09:23.157Z,11.33
2024-03-14T03:11:50.310Z,11.63
2024-03-14T03:14:17.251Z,11.42
2024-03-14T03:16:45.390Z,12.02
2024-03-14T03:19:12.148Z,11.97
2024-03-14T03:21:39.110Z,11.95
2024-03-14T03:24:09.311Z,12.37
2024-03-14T03:26:36.557Z,12.10
2024-03-14T03:29:03.496Z,12.51
2024-03-14T03:31:33.481Z,12.66
2024-03-14T03:34:00.193Z,13.02
2024-03-14T03:36:27.801Z,13.09
2024-03-14T03:38:55.497Z,13.16
2024-03-14T03:41:24.852Z,13.40
2024-03-14T03:43:51.761Z,13.87
2024-03-14T03:46:18.437Z,13.81
2024-03-14T03:48:46.091Z,13.95
2024-03-14T03:51:19.263Z,13.78
2024-03-14T03:53:46.447Z,14.38
2024-03-14T03:56:14.729Z,14.96
2024-03-14T03:58:43.863Z,15.16
2024-03-14T04:01:14.143Z,15.09
2024-03-14T04:03:42.081Z,15.89
2024-03-14T04:06:16.652Z,15.83
2024-03-14T04:08:46.986Z,16.02
2024-03-14T04:11:14.484Z,15.99
2024-03-14T04:13:41.726Z,15.98
2024-03-14T04:16:08.468Z,16.39
2024-03-14T04:18:36.582Z,16.37
2024-03-14T04:21:09.208Z,16.14
2024-03-14T04:23:36.907Z,16.63
2024-03-14T04:26:10.545Z,17.58
2024-03-14T04:28:39.199Z,18.11
2024-03-14T04:31:05.964Z,17.00
2024-03-14T04:33:35.034Z,17.89
2024-03-14T04:36:02.369Z,18.30
2024-03-14T04:38:29.041Z,18.77
2024-03-14T04:40:57.448Z,18.45
2024-03-14T04:43:25.492Z,19.22
2024-03-14T04:45:53.233Z,18.81
2024-03-14T04:48:20.106Z,19.43
2024-03-14T04:50:48.026Z,19.37
2024-03-14T04:53:14.750Z,20.22
2024-03-14T04:55:41.550Z,20.15
2024-03-14T04:58:08.303Z,19.83
2024-03-14T05:00:35.117Z,20.56
2024-03-14T05:03:02.032Z,20.21
2024-03-14T05:05:29.504Z,20.10
2024-03-14T05:07:56.127Z,20.51
2024-03-14T05:10:24.691Z,21.07
2024-03-14T05:12:51.384Z,20.52
2024-03-14T05:15:19.238Z,20.72
2024-03-14T05:17:47.080Z,20.89
2024-03-14T05:20:15.578Z,20.33
2024-03-14T05:22:43.382Z,21.39
2024-03-14T05:25:13.979Z,21.19
2024-03-14T05:27:45.969Z,20.44
2024-03-14T05:30:14.880Z,20.93
2024-03-14T05:32:42.060Z,20.44
2024-03-14T05:35:11.232Z,21.06
2024-03-14T05:37:38.119Z,21.03
2024-03-14T05:40:05.895Z,20.54
2024-03-14T05:42:32.768Z,20.25
2024-03-14T05:44:59.592Z,20.34
2024-03-14T05:47:26.438Z,20.66
2024-03-14T05:49:53.239Z,20.10
2024-03-14T05:52:20.135Z,19.99
2024-03-14T05:54:46.982Z,20.56
2024-03-14T05:57:15.877Z,20.04
2024-03-14T05:59:42.807Z,20.43
2024-03-14T06:02:09.514Z,20.25
2024-03-14T06:04:36.301Z,19.80
2024-03-14T06:07:03.069Z,19.70
2024-03-14T06:09:43.157Z,20.54
2024-03-14T06:12:10.980Z,19.97
2024-03-14T06:14:40.446Z,19.71
2024-03-14T06:17:07.383Z,20.31
2024-03-14T06:19:34.141Z,20.14
2024-03-14T06:22:00.796Z,20.29
2024-03-14T06:24:27.655Z,20.01
2024-03-14T06:26:54.425Z,19.82
2024-03-14T06:29:23.936Z,20.26
2024-03-14T06:31:51.265Z,19.82
2024-03-14T06:34:18.199Z,19.93
2024-03-14T06:36:45.160Z,19.42
2024-03-14T06:39:12.531Z,19.10
2024-03-14T06:41:39.450Z,19.15
2024-03-14T06:44:08.374Z,18.89
2024-03-14T06:46:35.728Z,19.13
2024-03-14T06:49:03.505Z,19.52
2024-03-14T06:51:30.990Z,19.42
2024-03-14T06:53:59.748Z,18.84
2024-03-14T06:56:28.353Z,18.49
2024-03-14T06:58:55.439Z,19.01
2024-03-14T07:01:22.518Z,18.02
2024-03-14T07:03:49.406Z,18.14
2024-03-14T07:06:16.229Z,17.85
2024-03-14T07:08:44.205Z,18.05
2024-03-14T07:11:13.288Z,17.80
2024-03-14T07:13:40.106Z,17.38
2024-03-14T07:16:10.790Z,17.21
2024-03-14T07:18:38.396Z,17.62
2024-03-14T07:21:06.072Z,16.76
2024-03-14T07:23:34.675Z,16.26
2024-03-14T07:26:04.180Z,16.67
2024-03-14T07:28:33.026Z,16.26
2024-03-14T07:31:00.284Z,15.98
2024-03-14T07:33:27.323Z,16.03
2024-03-14T07:35:56.066Z,15.00
2024-03-14T07:38:28.913Z,14.92
2024-03-14T07:40:56.903Z,15.22
2024-03-14T07:43:23.978Z,15.08
2024-03-14T07:45:51.255Z,14.53
2024-03-14T07:48:19.661Z,16.77
2024-03-14T07:50:47.265Z,15.78
2024-03-14T07:53:14.366Z,14.12
2024-03-14T07:55:41.475Z,14.21
2024-03-14T07:58:09.645Z,14.00
2024-03-14T08:00:38.300Z,13.25
2024-03-14T08:03:06.014Z,13.35
2024-03-14T08:05:34.702Z,13.62
2024-03-14T08:08:14.304Z,13.59
2024-03-14T08:10:48.186Z,13.13
2024-03-14T08:13:25.300Z,12.75
2024-03-14T08:15:55.630Z,12.45
2024-03-14T08:18:24.787Z,12.09
2024-03-14T08:20:56.992Z,11.74
2024-03-14T08:23:23.720Z,11.84
2024-03-14T08:25:51.171Z,11.70
2024-03-14T08:28:18.192Z,11.94
2024-03-14T08:30:46.496Z,11.35
2024-03-14T08:33:14.874Z,11.23
2024-03-14T08:35:44.065Z,11.14
2024-03-14T08:38:14.984Z,10.86
2024-03-14T08:40:45.208Z,10.57
2024-03-14T08:43:15.021Z,10.05
2024-03-14T08:45:42.316Z,10.45
2024-03-14T08:48:09.759Z,10.04
2024-03-14T08:50:37.129Z,10.35
2024-03-14T08:53:04.048Z,10.18
2024-03-14T08:55:41.096Z,9.98
2024-03-14T08:58:09.738Z,9.75
2024-03-14T09:00:36.583Z,9.51
2024-03-14T09:03:04.475Z,9.68
2024-03-14T09:05:33.999Z,9.87
2024-03-14T09:08:00.840Z,9.33
2024-03-14T09:10:27.507Z,9.53
2024-03-14T09:12:58.767Z,9.20
2024-03-14T09:15:26.005Z,9.18
2024-03-14T09:17:53.491Z,9.08
2024-03-14T09:20:24.199Z,9.79
2024-03-14T09:22:57.332Z,11.17
2024-03-14T09:25:25.775Z,9.52
2024-03-14T09:27:53.567Z,9.09
2024-03-14T09:30:23.476Z,8.88
2024-03-14T09:32:51.783Z,8.94
2024-03-14T09:35:27.067Z,8.89
2024-03-14T09:37:58.436Z,9.00
2024-03-14T09:40:25.639Z,8.57
2024-03-14T09:43:00.924Z,8.64
2024-03-14T09:45:30.496Z,8.64
2024-03-14T09:47:58.778Z,8.58
2024-03-14T09:50:28.087Z,8.33
2024-03-14T09:52:56.889Z,8.72
2024-03-14T09:55:25.291Z,8.05
2024-03-14T09:57:54.500Z,7.42
2024-03-14T10:00:21.629Z,7.37
2024-03-14T10:02:54.232Z,7.71
2024-03-14T10:05:21.100Z,7.29
2024-03-14T10:07:48.991Z,7.26
2024-03-14T10:10:16.925Z,8.65
2024-03-14T10:12:53.172Z,9.26
2024-03-14T10:15:25.032Z,6.58
2024-03-14T10:17:54.509Z,6.43
2024-03-14T10:20:22.015Z,6.50
2024-03-14T10:22:50.046Z,5.93
2024-03-14T10:25:24.489Z,6.18
2024-03-14T10:30:29.793Z,5.74
2024-03-14T10:32:57.737Z,6.04
2024-03-14T10:35:24.882Z,5.78
2024-03-14T10:37:58.088Z,5.77
2024-03-14T10:40:30.761Z,5.66
2024-03-14T10:42:58.759Z,5.19
2024-03-14T10:45:28.535Z,5.46
2024-03-14T10:47:57.668Z,5.62
2024-03-14T10:50:27.452Z,5.65
2024-03-14T10:52:56.685Z,5.58
2024-03-14T10:55:23.886Z,5.76
2024-03-14T10:57:52.170Z,6.06
2024-03-14T11:00:21.032Z,6.39
2024-03-14T11:02:52.595Z,6.35
2024-03-14T11:05:27.649Z,6.33
2024-03-14T11:07:57.971Z,6.33
2024-03-14T11:10:30.389Z,6.19
2024-03-14T11:13:01.241Z,6.30
2024-03-14T11:15:30.248Z,6.36
2024-03-14T11:18:01.252Z,7.74
2024-03-14T11:20:34.292Z,6.36
2024-03-14T11:23:11.422Z,6.48
2024-03-14T11:25:44.307Z,5.84
2024-03-14T11:28:13.848Z,5.40
2024-03-14T11:30:40.752Z,5.21
2024-03-14T11:33:09.057Z,5.08
2024-03-14T11:35:39.122Z,4.81
2024-03-14T11:38:20.991Z,4.59
2024-03-14T11:40:48.415Z,4.93
2024-03-14T11:43:16.603Z,4.89
2024-03-14T11:45:43.539Z,4.83
2024-03-14T11:48:16.829Z,4.52
2024-03-14T11:50:43.728Z,4.57
2024-03-14T11:53:11.113Z,4.06
2024-03-14T11:55:40.940Z,4.94
2024-03-14T11:58:18.745Z,4.28
2024-03-14T12:00:53.210Z,4.16
2024-03-14T12:03:23.363Z,4.18
2024-03-14T12:05:59.119Z,3.97
2024-03-14T12:08:26.138Z,3.92
2024-03-14T12:10:56.537Z,4.01
2024-03-14T12:13:28.223Z,4.29
2024-03-14T12:16:03.836Z,3.84
2024-03-14T12:18:32.300Z,3.77
2024-03-14T12:21:01.605Z,6.15
2024-03-14T12:23:28.641Z,4.82
2024-03-14T12:26:08.326Z,3.60
2024-03-14T12:28:36.638Z,3.31
2024-03-14T12:31:03.896Z,3.92
2024-03-14T12:33:32.251Z,4.12
2024-03-14T12:36:01.836Z,4.31
2024-03-14T12:38:30.615Z,4.37
2024-03-14T12:40:59.860Z,4.21
2024-03-14T12:43:28.987Z,4.27
2024-03-14T12:45:56.430Z,4.40
2024-03-14T12:48:24.065Z,4.40
2024-03-14T12:50:54.824Z,4.07
2024-03-14T12:53:25.565Z,4.29
2024-03-14T12:55:53.789Z,4.54
2024-03-14T12:58:27.187Z,4.24
2024-03-14T13:00:57.656Z,4.42
2024-03-14T13:03:24.967Z,4.02
2024-03-14T13:05:57.591Z,4.35
2024-03-14T13:08:26.277Z,4.61
2024-03-14T13:11:28.684Z,4.14
2024-03-14T13:14:10.367Z,3.75
2024-03-14T13:16:37.161Z,3.34
2024-03-14T13:19:04.171Z,3.06
2024-03-14T13:21:46.491Z,3.08
2024-03-14T13:24:14.826Z,3.26
2024-03-14T13:26:42.125Z,3.40
2024-03-14T13:29:12.718Z,4.20
2024-03-14T13:31:39.379Z,4.04
2024-03-14T13:34:07.511Z,4.42
2024-03-14T13:36:37.940Z,4.12
2024-03-14T13:39:07.727Z,4.20
2024-03-14T13:41:36.305Z,4.15
2024-03-14T13:44:03.010Z,4.21
2024-03-14T13:46:34.206Z,4.09
2024-03-14T13:49:13.200Z,4.30
2024-03-14T13:51:40.783Z,4.12
2024-03-14T13:54:07.961Z,4.06
2024-03-14T13:56:35.142Z,4.17
2024-03-14T13:59:02.510Z,3.95
2024-03-14T14:01:33.694Z,4.54
2024-03-14T14:04:03.453Z,3.80
2024-03-14T14:06:30.244Z,3.66
2024-03-14T14:08:57.985Z,4.44
2024-03-14T14:11:26.553Z,4.38
2024-03-14T14:13:53.556Z,3.82
2024-03-14T14:16:20.378Z,3.83
2024-03-14T14:18:47.756Z,3.88
2024-03-14T14:21:15.724Z,3.63
2024-03-14T14:23:42.907Z,3.75
2024-03-14T14:26:09.828Z,3.90
2024-03-14T14:28:37.398Z,3.83
2024-03-14T14:31:04.263Z,3.53
2024-03-14T14:33:33.612Z,3.55
2024-03-14T14:36:02.354Z,3.27
2024-03-14T14:38:29.341Z,3.64
2024-03-14T14:40:55.990Z,3.67
2024-03-14T14:43:22.765Z,3.65
2024-03-14T14:45:49.509Z,3.40
2024-03-14T14:48:16.815Z,3.29
2024-03-14T14:50:43.680Z,3.15
2024-03-14T14:53:12.100Z,3.04
2024-03-14T14:55:41.846Z,3.58
2024-03-14T14:58:08.702Z,3.32
2024-03-14T15:00:35.798Z,3.29
2024-03-14T15:03:04.060Z,3.25
2024-03-14T15:05:31.130Z,3.43
2024-03-14T15:07:58.404Z,3.02
2024-03-14T15:10:25.130Z,3.30
2024-03-14T15:12:57.724Z,3.36
2024-03-14T15:15:28.593Z,3.24
2024-03-14T15:17:55.740Z,3.26
2024-03-14T15:20:23.507Z,3.05
2024-03-14T15:22:53.760Z,3.12
2024-03-14T15:25:22.044Z,3.06
2024-03-14T15:27:49.367Z,4.68
2024-03-14T15:30:17.935Z,3.41
2024-03-14T15:32:46.520Z,2.82
2024-03-14T15:35:16.168Z,2.79
2024-03-14T15:37:43.852Z,2.99
2024-03-14T15:40:11.973Z,2.88
2024-03-14T15:42:38.765Z,2.59
2024-03-14T15:45:10.574Z,2.64
2024-03-14T15:47:38.025Z,2.51
2024-03-14T15:50:09.145Z,2.65
2024-03-14T15:52:35.968Z,2.57
2024-03-14T15:55:03.988Z,2.77
2024-03-14T15:57:32.445Z,2.83
2024-03-14T15:59:59.146Z,2.61
2024-03-14T16:02:25.843Z,2.71
2024-03-14T16:04:52.540Z,2.65
2024-03-14T16:07:19.242Z,2.52
2024-03-14T16:09:46.011Z,2.60
2024-03-14T16:12:13.110Z,2.53
2024-03-14T16:14:40.117Z,2.55
2024-03-14T16:17:09.322Z,5.09
2024-03-14T16:19:36.057Z,3.51
2024-03-14T16:22:04.548Z,2.83
2024-03-14T16:24:32.435Z,2.49
2024-03-14T16:26:59.195Z,2.74
2024-03-14T16:29:26.020Z,2.57
2024-03-14T16:31:52.928Z,2.74
2024-03-14T16:34:20.403Z,2.88
2024-03-14T16:36:47.553Z,2.98
2024-03-14T16:39:20.876Z,3.17
2024-03-14T16:41:48.592Z,3.46
2024-03-14T16:44:15.716Z,3.58
2024-03-14T16:46:44.776Z,4.11
2024-03-14T16:49:12.860Z,5.19
2024-03-14T16:51:41.763Z,5.85
2024-03-14T16:54:14.214Z,4.78
2024-03-14T16:56:41.003Z,5.06
2024-03-14T16:59:08.674Z,4.47
2024-03-14T17:01:36.954Z,4.58
2024-03-14T17:04:04.396Z,4.91
2024-03-14T17:06:31.216Z,4.74
2024-03-14T17:08:58.286Z,5.06
2024-03-14T17:11:25.288Z,5.08
2024-03-14T17:13:53.592Z,5.13
2024-03-14T17:16:24.997Z,5.42
2024-03-14T17:18:53.695Z,6.03
2024-03-14T17:21:22.168Z,7.63
2024-03-14T17:23:49.112Z,6.52
2024-03-14T17:26:16.187Z,5.69
2024-03-14T17:28:44.584Z,5.96
2024-03-14T17:31:14.378Z,5.80
2024-03-14T17:33:43.561Z,6.11
2024-03-14T17:36:16.919Z,5.76
2024-03-14T17:38:44.802Z,5.88
2024-03-14T17:41:12.166Z,5.43
2024-03-14T17:43:42.102Z,5.38
2024-03-14T17:46:08.922Z,5.53
2024-03-14T17:48:35.707Z,5.49
2024-03-14T17:51:02.522Z,5.33
2024-03-14T17:53:29.425Z,5.43
2024-03-14T17:55:56.108Z,5.54
2024-03-14T17:58:22.741Z,5.86
2024-03-14T18:00:49.648Z,5.63
2024-03-14T18:03:18.287Z,5.86
2024-03-14T18:05:45.215Z,5.75
2024-03-14T18:08:12.010Z,5.75
2024-03-14T18:10:38.776Z,6.06
2024-03-14T18:13:06.499Z,8.85
2024-03-14T18:15:33.491Z,8.70
2024-03-14T18:18:00.586Z,7.54
2024-03-14T18:20:28.308Z,6.26
2024-03-14T18:22:56.535Z,5.91
2024-03-14T18:25:23.550Z,6.12
2024-03-14T18:27:52.197Z,6.41
2024-03-14T18:30:21.892Z,6.26
2024-03-14T18:32:51.265Z,6.41
2024-03-14T18:35:20.878Z,7.04
2024-03-14T18:37:50.978Z,7.01
2024-03-14T18:40:20.439Z,7.19
2024-03-14T18:42:49.084Z,7.41
2024-03-14T18:45:17.729Z,7.23
2024-03-14T18:47:45.340Z,7.05
2024-03-14T18:50:14.708Z,6.95
2024-03-14T18:52:41.917Z,6.85
2024-03-14T18:55:10.510Z,7.59
2024-03-14T18:57:37.760Z,8.74
2024-03-14T19:00:08.051Z,9.11
2024-03-14T19:02:35.190Z,8.98
2024-03-14T19:05:02.242Z,9.18
2024-03-14T19:07:29.075Z,9.15
2024-03-14T19:09:55.697Z,9.30
2024-03-14T19:12:22.570Z,8.97
2024-03-14T19:14:50.365Z,9.83
2024-03-14T19:17:20.839Z,9.65
2024-03-14T19:19:51.276Z,10.11
2024-03-14T19:22:18.590Z,12.67
2024-03-14T19:24:45.784Z,11.31
2024-03-14T19:27:12.963Z,9.02
2024-03-14T19:29:39.778Z,8.74
2024-03-14T19:32:06.983Z,8.43
2024-03-14T19:34:34.650Z,8.54
2024-03-14T19:37:04.393Z,8.47
2024-03-14T19:39:33.517Z,8.22
2024-03-14T19:42:00.813Z,8.68
2024-03-14T19:44:29.577Z,8.46
2024-03-14T19:46:58.224Z,8.68
2024-03-14T19:49:25.392Z,8.25
2024-03-14T19:51:52.260Z,8.33
2024-03-14T19:54:19.124Z,8.09
2024-03-14T19:56:46.026Z,7.85
2024-03-14T19:59:12.889Z,7.61
2024-03-14T20:01:39.708Z,7.47
2024-03-14T20:04:06.526Z,7.62
2024-03-14T20:06:33.348Z,7.28
2024-03-14T20:09:00.152Z,7.39
2024-03-14T20:11:27.096Z,7.24
2024-03-14T20:13:53.778Z,7.10
2024-03-14T20:16:20.579Z,7.35
2024-03-14T20:18:47.808Z,10.45
2024-03-14T20:21:15.152Z,10.28
2024-03-14T20:23:44.197Z,7.32
2024-03-14T20:26:12.867Z,7.38
2024-03-14T20:28:40.656Z,7.07
2024-03-14T20:31:09.106Z,6.89
2024-03-14T20:33:36.671Z,7.01
2024-03-14T20:36:05.570Z,6.46
2024-03-14T20:38:33.287Z,6.16
2024-03-14T20:41:03.125Z,5.85
2024-03-14T20:43:31.774Z,5.56
2024-03-14T20:45:58.748Z,5.67
2024-03-14T20:48:25.975Z,4.95
2024-03-14T20:50:52.884Z,5.00
2024-03-14T20:53:19.853Z,4.98
2024-03-14T20:56:01.015Z,5.01
2024-03-14T20:58:32.831Z,5.80
2024-03-14T21:01:02.167Z,6.20
2024-03-14T21:03:29.057Z,5.01
2024-03-14T21:05:55.826Z,4.47
2024-03-14T21:08:22.459Z,4.32
2024-03-14T21:10:50.466Z,4.34
2024-03-14T21:13:18.221Z,4.52
2024-03-14T21:15:45.609Z,4.09
2024-03-14T21:18:13.088Z,4.37
2024-03-14T21:20:40.021Z,4.42
2024-03-14T21:23:08.844Z,4.43
2024-03-14T21:25:35.842Z,4.63
2024-03-14T21:28:02.856Z,4.50
2024-03-14T21:30:29.989Z,4.72
2024-03-14T21:32:56.920Z,4.76
2024-03-14T21:35:23.973Z,4.83
2024-03-14T21:37:52.617Z,4.83
2024-03-14T21:40:23.281Z,5.32
2024-03-14T21:42:51.407Z,5.51
2024-03-14T21:45:20.055Z,5.36
2024-03-14T21:47:47.830Z,5.36
2024-03-14T21:50:17.986Z,5.08
2024-03-14T21:52:46.141Z,5.59
2024-03-14T21:55:15.943Z,5.14
2024-03-14T21:57:46.004Z,5.14
2024-03-14T22:00:18.542Z,5.31
2024-03-14T22:02:48.396Z,5.24
2024-03-14T22:05:18.396Z,5.42
2024-03-14T22:07:46.066Z,5.44
2024-03-14T22:10:13.364Z,5.39
2024-03-14T22:12:40.233Z,5.35
2024-03-14T22:15:08.362Z,5.54
2024-03-14T22:17:36.619Z,5.56
2024-03-14T22:20:09.125Z,5.30
2024-03-14T22:22:36.762Z,5.19
2024-03-14T22:25:04.631Z,5.53
2024-03-14T22:27:31.875Z,5.44
2024-03-14T22:30:00.132Z,5.52
2024-03-14T22:32:28.627Z,5.81
2024-03-14T22:34:57.280Z,6.04
2024-03-14T22:37:24.486Z,6.06
2024-03-14T22:39:51.279Z,6.18
2024-03-14T22:42:18.010Z,6.20
2024-03-14T22:44:47.672Z,6.39
2024-03-14T22:47:14.317Z,6.35
2024-03-14T22:49:41.733Z,6.64
2024-03-14T22:52:08.389Z,6.33
2024-03-14T22:54:35.095Z,6.47
2024-03-14T22:57:02.351Z,6.60
2024-03-14T22:59:29.060Z,6.70
2024-03-14T23:01:55.772Z,7.11
2024-03-14T23:04:23.151Z,6.73
2024-03-14T23:06:52.369Z,6.77
2024-03-14T23:09:19.262Z,7.22
2024-03-14T23:11:45.938Z,7.30
2024-03-14T23:14:13.398Z,7.45
2024-03-14T23:16:40.113Z,7.50
2024-03-14T23:19:09.087Z,7.71
2024-03-14T23:21:39.542Z,7.80
2024-03-14T23:24:06.833Z,7.90
2024-03-14T23:26:35.095Z,7.73
2024-03-14T23:29:04.888Z,7.80
2024-03-14T23:31:32.198Z,8.05
2024-03-14T23:34:00.007Z,7.93
2024-03-14T23:36:27.954Z,7.85
2024-03-14T23:38:55.091Z,8.29
2024-03-14T23:41:22.473Z,7.75
2024-03-14T23:43:53.583Z,8.29
2024-03-14T23:46:21.824Z,8.26
2024-03-14T23:48:49.148Z,7.98
2024-03-14T23:51:16.293Z,8.22
2024-03-14T23:53:43.351Z,8.01
2024-03-14T23:56:10.770Z,8.14
2024-03-14T23:58:37.722Z,7.97
